Time;durP1;ratioP1;P1;durP2;ratioP2;P2;SDS_P1;SDS_P2;PMS_P1;PMS_P2;Temp;Humidity;BMP_temperature;BMP_pressure;BME280_temperature;BME280_humidity;BME280_pressure;Samples;Min_cycle;Max_cycle;Signal;HPM_P1;HPM_P2
2022/10/25 00:00:03;;;;;;;7.82;2.50;;;;;;;;;;4974501;28;20065;-75
2022/10/25 00:02:33;;;;;;;10.52;2.80;;;;;;;;;;4974286;28;20035;-71
2022/10/25 00:04:58;;;;;;;7.75;2.92;;;;;;;;;;4974423;28;20555;-71
2022/10/25 00:07:24;;;;;;;10.00;2.95;;;;;;;;;;4974478;28;20058;-75
2022/10/25 00:09:49;;;;;;;4.95;2.53;;;;;;;;;;4974390;28;20030;-76
2022/10/25 00:12:15;;;;;;;6.70;2.90;;;;;;;;;;4974490;28;20704;-77
2022/10/25 00:14:40;;;;;;;7.15;2.45;;;;;;;;;;4974139;28;20104;-76
2022/10/25 00:17:06;;;;;;;8.70;2.65;;;;;;;;;;4974060;28;20027;-76
2022/10/25 00:19:31;;;;;;;6.95;3.03;;;;;;;;;;4974244;28;20085;-72
2022/10/25 00:21:57;;;;;;;8.75;2.90;;;;;;;;;;4992747;28;20030;-68
2022/10/25 00:26:57;;;;;;;8.82;2.67;;;;;;;;;;5675534;23;20492;-72
2022/10/25 00:29:23;;;;;;;8.05;2.70;;;;;;;;;;4971275;28;20031;-75
2022/10/25 00:31:48;;;;;;;7.85;2.78;;;;;;;;;;4972925;28;20058;-67
2022/10/25 00:34:14;;;;;;;8.60;3.15;;;;;;;;;;4973864;28;20035;-67
2022/10/25 00:36:39;;;;;;;9.98;3.08;;;;;;;;;;4973736;28;20074;-66
2022/10/25 00:39:04;;;;;;;8.95;2.60;;;;;;;;;;4973920;28;20106;-67
2022/10/25 00:41:32;;;;;;;5.20;2.65;;;;;;;;;;4973680;28;20030;-67
2022/10/25 00:44:35;;;;;;;7.40;2.72;;;;;;;;;;4973509;28;20023;-76
2022/10/25 00:47:03;;;;;;;8.07;2.70;;;;;;;;;;4973672;28;20042;-67
2022/10/25 00:49:31;;;;;;;7.05;2.88;;;;;;;;;;4974827;28;20029;-67
2022/10/25 00:52:01;;;;;;;7.80;2.60;;;;;;;;;;4977516;28;20077;-66
2022/10/25 00:54:34;;;;;;;10.20;3.22;;;;;;;;;;4977904;28;20093;-67
2022/10/25 00:57:08;;;;;;;8.38;3.25;;;;;;;;;;4983830;28;20077;-66
2022/10/25 00:59:33;;;;;;;6.55;3.13;;;;;;;;;;4997192;28;20026;-66
2022/10/25 01:01:59;;;;;;;8.57;3.03;;;;;;;;;;4981383;28;20031;-69
2022/10/25 01:04:27;;;;;;;9.07;3.33;;;;;;;;;;4977442;28;20537;-67
2022/10/25 01:06:53;;;;;;;8.25;3.42;;;;;;;;;;4977520;28;20031;-67
2022/10/25 01:09:22;;;;;;;6.28;3.17;;;;;;;;;;4977525;28;20033;-67
2022/10/25 01:11:48;;;;;;;6.50;3.08;;;;;;;;;;4977188;28;20019;-67
2022/10/25 01:14:15;;;;;;;11.10;3.42;;;;;;;;;;4977418;28;20459;-67
2022/10/25 01:16:56;;;;;;;8.20;3.25;;;;;;;;;;4977427;28;20039;-67
2022/10/25 01:19:58;;;;;;;7.57;3.25;;;;;;;;;;4977336;28;20403;-67
2022/10/25 01:22:44;;;;;;;7.75;3.47;;;;;;;;;;4977239;28;20027;-67
2022/10/25 01:25:41;;;;;;;5.75;2.92;;;;;;;;;;4976991;28;20034;-67
2022/10/25 01:28:17;;;;;;;6.07;2.92;;;;;;;;;;4963152;28;20047;-67
2022/10/25 01:31:19;;;;;;;10.85;3.50;;;;;;;;;;4957759;28;20090;-68
2022/10/25 01:34:17;;;;;;;7.30;2.90;;;;;;;;;;4957651;29;20089;-68
2022/10/25 01:37:08;;;;;;;9.00;3.42;;;;;;;;;;4936106;29;20421;-68
2022/10/25 01:39:56;;;;;;;5.63;2.10;;;;;;;;;;4936168;29;20119;-67
2022/10/25 01:42:41;;;;;;;8.52;3.20;;;;;;;;;;4935940;29;20044;-67
2022/10/25 01:45:10;;;;;;;7.78;3.53;;;;;;;;;;4936217;29;20492;-67
2022/10/25 01:47:41;;;;;;;9.80;2.95;;;;;;;;;;4936013;29;20567;-68
2022/10/25 01:50:26;;;;;;;6.70;3.45;;;;;;;;;;4953356;28;20042;-68
2022/10/25 01:52:52;;;;;;;11.60;3.13;;;;;;;;;;4955293;29;20555;-67
2022/10/25 01:55:19;;;;;;;16.27;4.00;;;;;;;;;;4955076;29;20047;-66
2022/10/25 01:58:03;;;;;;;6.80;3.40;;;;;;;;;;4954961;29;20058;-67
2022/10/25 02:00:34;;;;;;;8.20;3.08;;;;;;;;;;4955008;28;20047;-70
2022/10/25 02:03:12;;;;;;;8.80;3.17;;;;;;;;;;4954656;29;20031;-67
2022/10/25 02:06:15;;;;;;;6.32;2.70;;;;;;;;;;4954954;29;20154;-66
2022/10/25 02:08:46;;;;;;;7.28;3.13;;;;;;;;;;4954638;29;20027;-67
2022/10/25 02:11:25;;;;;;;6.72;3.40;;;;;;;;;;4954990;29;20035;-66
2022/10/25 02:14:13;;;;;;;9.55;3.47;;;;;;;;;;4956809;28;20047;-67
2022/10/25 02:16:45;;;;;;;6.38;3.00;;;;;;;;;;4956941;28;20027;-67
2022/10/25 02:19:19;;;;;;;10.02;3.33;;;;;;;;;;4957027;28;20023;-67
2022/10/25 02:21:47;;;;;;;8.20;3.15;;;;;;;;;;4956750;28;20019;-67
2022/10/25 02:24:17;;;;;;;8.65;3.80;;;;;;;;;;4956483;29;20083;-66
2022/10/25 02:26:45;;;;;;;9.32;3.75;;;;;;;;;;4956487;28;20043;-67
2022/10/25 02:29:12;;;;;;;7.63;3.35;;;;;;;;;;4991413;28;20034;-66
2022/10/25 02:31:38;;;;;;;8.65;3.00;;;;;;;;;;4975968;28;20071;-67
2022/10/25 02:34:04;;;;;;;6.68;3.70;;;;;;;;;;4975873;28;20067;-67
2022/10/25 02:36:30;;;;;;;6.18;3.25;;;;;;;;;;4976007;28;20491;-72
2022/10/25 02:38:56;;;;;;;7.43;3.40;;;;;;;;;;4974378;28;20122;-66
2022/10/25 02:41:22;;;;;;;9.95;3.80;;;;;;;;;;4975870;28;20026;-68
2022/10/25 02:43:48;;;;;;;11.27;3.50;;;;;;;;;;4975642;28;20110;-67
2022/10/25 02:46:20;;;;;;;7.70;3.45;;;;;;;;;;4975628;28;20031;-68
2022/10/25 02:48:46;;;;;;;12.50;4.00;;;;;;;;;;4975691;28;20376;-67
2022/10/25 02:51:12;;;;;;;7.05;3.42;;;;;;;;;;4975443;28;20026;-68
2022/10/25 02:53:38;;;;;;;6.43;3.30;;;;;;;;;;4975635;28;20027;-67
2022/10/25 02:56:10;;;;;;;8.90;3.25;;;;;;;;;;4975466;28;20369;-67
2022/10/25 02:58:37;;;;;;;9.13;3.25;;;;;;;;;;4975647;28;20023;-66
2022/10/25 03:01:03;;;;;;;8.43;3.95;;;;;;;;;;4975423;28;20038;-68
2022/10/25 03:03:29;;;;;;;12.13;5.38;;;;;;;;;;4975387;28;20034;-67
2022/10/25 03:05:55;;;;;;;10.43;3.80;;;;;;;;;;4974890;28;20054;-67
2022/10/25 03:08:22;;;;;;;11.57;3.30;;;;;;;;;;4975397;28;20464;-67
2022/10/25 03:10:49;;;;;;;6.68;2.88;;;;;;;;;;4973910;28;20027;-67
2022/10/25 03:13:15;;;;;;;9.93;3.30;;;;;;;;;;4974126;28;20030;-67
2022/10/25 03:15:42;;;;;;;8.30;3.45;;;;;;;;;;4975126;28;20468;-67
2022/10/25 03:18:07;;;;;;;8.02;2.85;;;;;;;;;;4975065;28;20050;-67
2022/10/25 03:20:32;;;;;;;12.82;3.33;;;;;;;;;;4974875;28;20423;-67
2022/10/25 03:22:58;;;;;;;6.18;2.65;;;;;;;;;;4974981;28;20027;-66
2022/10/25 03:25:23;;;;;;;6.07;3.00;;;;;;;;;;4974828;28;20030;-67
2022/10/25 03:27:49;;;;;;;7.47;2.83;;;;;;;;;;4967056;28;20051;-67
2022/10/25 03:30:15;;;;;;;5.57;2.65;;;;;;;;;;4955563;28;20491;-66
2022/10/25 03:32:40;;;;;;;6.20;2.65;;;;;;;;;;4955507;28;20031;-66
2022/10/25 03:35:07;;;;;;;9.18;4.05;;;;;;;;;;4955250;28;20102;-68
2022/10/25 03:37:32;;;;;;;8.25;2.50;;;;;;;;;;4955406;28;20472;-67
2022/10/25 03:39:58;;;;;;;6.93;2.30;;;;;;;;;;4955208;28;20085;-67
2022/10/25 03:42:23;;;;;;;9.30;3.22;;;;;;;;;;4970259;28;20097;-67
2022/10/25 03:44:49;;;;;;;9.80;2.50;;;;;;;;;;4955038;28;20031;-66
2022/10/25 03:47:15;;;;;;;6.07;2.60;;;;;;;;;;4955360;28;20023;-67
2022/10/25 03:49:40;;;;;;;6.40;2.80;;;;;;;;;;4954982;28;20031;-67
2022/10/25 03:52:06;;;;;;;6.80;2.58;;;;;;;;;;4955208;28;20093;-67
2022/10/25 03:54:32;;;;;;;7.53;2.67;;;;;;;;;;4955265;28;20071;-67
2022/10/25 03:56:58;;;;;;;7.35;2.75;;;;;;;;;;4954650;28;20053;-67
2022/10/25 03:59:23;;;;;;;7.90;3.03;;;;;;;;;;4955018;28;20160;-70
2022/10/25 04:01:49;;;;;;;8.48;3.03;;;;;;;;;;4966442;28;20034;-67
2022/10/25 04:04:14;;;;;;;7.68;3.05;;;;;;;;;;4973970;28;20031;-67
2022/10/25 04:06:40;;;;;;;6.72;2.63;;;;;;;;;;4974179;28;20098;-66
2022/10/25 04:09:06;;;;;;;7.15;2.85;;;;;;;;;;4974271;28;20034;-68
2022/10/25 04:11:31;;;;;;;5.03;2.58;;;;;;;;;;4974246;28;20122;-67
2022/10/25 04:13:57;;;;;;;6.35;2.72;;;;;;;;;;4973810;28;20519;-67
2022/10/25 04:16:22;;;;;;;6.75;3.10;;;;;;;;;;4974101;28;20026;-67
2022/10/25 04:18:50;;;;;;;6.75;2.83;;;;;;;;;;4973922;28;20371;-67
2022/10/25 04:21:15;;;;;;;8.77;3.00;;;;;;;;;;4974088;28;20026;-67
2022/10/25 04:23:41;;;;;;;7.47;3.33;;;;;;;;;;4973666;28;20077;-66
2022/10/25 04:26:06;;;;;;;7.30;2.90;;;;;;;;;;4973640;28;20384;-67
2022/10/25 04:28:32;;;;;;;7.78;2.72;;;;;;;;;;4960854;28;20093;-67
2022/10/25 04:30:58;;;;;;;7.40;2.70;;;;;;;;;;4954601;28;20027;-70
2022/10/25 04:33:23;;;;;;;7.53;2.50;;;;;;;;;;4954422;28;20042;-69
2022/10/25 04:35:56;;;;;;;8.82;2.55;;;;;;;;;;4954400;28;20440;-67
2022/10/25 04:38:22;;;;;;;7.07;2.47;;;;;;;;;;4954699;28;20532;-67
2022/10/25 04:40:58;;;;;;;10.70;2.65;;;;;;;;;;4954463;28;20029;-67
2022/10/25 04:43:26;;;;;;;10.80;3.00;;;;;;;;;;4954253;28;20078;-67
2022/10/25 04:45:52;;;;;;;7.70;2.85;;;;;;;;;;4954183;28;20103;-68
2022/10/25 04:48:17;;;;;;;10.85;2.70;;;;;;;;;;4954082;28;20031;-68
2022/10/25 04:50:43;;;;;;;7.97;3.38;;;;;;;;;;4954237;28;20031;-74
2022/10/25 04:53:09;;;;;;;8.13;3.45;;;;;;;;;;4954211;28;20054;-67
2022/10/25 04:55:35;;;;;;;7.03;3.13;;;;;;;;;;4954052;28;20377;-68
2022/10/25 04:58:01;;;;;;;5.85;2.90;;;;;;;;;;4967834;28;20041;-70
2022/10/25 05:00:26;;;;;;;6.07;3.00;;;;;;;;;;4973344;28;20031;-68
2022/10/25 05:02:53;;;;;;;8.80;3.15;;;;;;;;;;4973175;28;20030;-67
2022/10/25 05:05:21;;;;;;;8.02;2.90;;;;;;;;;;4973372;28;20042;-68
2022/10/25 05:07:46;;;;;;;9.88;3.17;;;;;;;;;;4973423;28;20027;-67
2022/10/25 05:10:11;;;;;;;8.70;3.10;;;;;;;;;;4973416;28;20093;-68
2022/10/25 05:12:37;;;;;;;10.45;3.28;;;;;;;;;;4973390;28;20392;-68
2022/10/25 05:15:04;;;;;;;7.97;2.90;;;;;;;;;;4973250;28;20038;-67
2022/10/25 05:17:31;;;;;;;12.13;3.38;;;;;;;;;;4973068;28;20518;-68
2022/10/25 05:19:57;;;;;;;5.95;2.85;;;;;;;;;;4973227;28;20026;-68
2022/10/25 05:22:23;;;;;;;9.20;2.80;;;;;;;;;;4973354;28;20167;-67
2022/10/25 05:24:48;;;;;;;8.90;2.92;;;;;;;;;;4973190;28;20058;-67
2022/10/25 05:27:14;;;;;;;9.52;3.00;;;;;;;;;;4970347;28;20480;-67
2022/10/25 05:29:40;;;;;;;8.18;3.63;;;;;;;;;;4988391;28;20066;-67
2022/10/25 05:32:06;;;;;;;7.95;3.47;;;;;;;;;;4992476;28;20081;-68
2022/10/25 05:34:31;;;;;;;9.32;3.47;;;;;;;;;;4992758;28;20023;-67
2022/10/25 05:36:57;;;;;;;7.93;2.92;;;;;;;;;;4994335;28;20033;-78
2022/10/25 05:39:22;;;;;;;8.80;3.53;;;;;;;;;;4996312;28;20031;-67
2022/10/25 05:41:48;;;;;;;9.50;3.20;;;;;;;;;;4995775;28;20048;-69
2022/10/25 05:44:15;;;;;;;8.35;3.95;;;;;;;;;;4996244;28;20121;-68
2022/10/25 05:46:41;;;;;;;14.48;3.20;;;;;;;;;;4995841;28;20439;-71
2022/10/25 05:49:08;;;;;;;8.88;2.90;;;;;;;;;;4996212;28;20035;-67
2022/10/25 05:51:34;;;;;;;7.53;3.15;;;;;;;;;;4996126;28;20118;-75
2022/10/25 05:54:09;;;;;;;14.70;3.38;;;;;;;;;;4995891;28;20168;-68
2022/10/25 05:56:35;;;;;;;13.20;3.42;;;;;;;;;;4995641;28;20033;-68
2022/10/25 05:59:07;;;;;;;8.00;3.50;;;;;;;;;;4996152;28;20026;-78
2022/10/25 06:01:34;;;;;;;7.78;3.70;;;;;;;;;;4981555;28;20069;-69
2022/10/25 06:04:00;;;;;;;13.20;4.70;;;;;;;;;;4976169;28;20055;-70
2022/10/25 06:06:25;;;;;;;8.20;3.25;;;;;;;;;;4976047;28;20062;-71
2022/10/25 06:08:58;;;;;;;11.32;3.63;;;;;;;;;;4976309;28;20030;-68
2022/10/25 06:11:24;;;;;;;7.97;3.40;;;;;;;;;;4975980;28;20376;-69
2022/10/25 06:13:50;;;;;;;9.63;3.97;;;;;;;;;;4976102;28;20027;-68
2022/10/25 06:16:18;;;;;;;11.65;4.03;;;;;;;;;;4975893;28;20549;-69
2022/10/25 06:18:44;;;;;;;9.77;3.75;;;;;;;;;;4975933;28;20031;-67
2022/10/25 06:21:12;;;;;;;8.80;3.42;;;;;;;;;;4976148;28;20510;-72
2022/10/25 06:23:39;;;;;;;11.50;3.92;;;;;;;;;;4976044;28;20031;-70
2022/10/25 06:26:07;;;;;;;9.77;3.50;;;;;;;;;;4975701;28;20042;-67
2022/10/25 06:28:33;;;;;;;15.23;3.67;;;;;;;;;;4962639;28;20484;-70
2022/10/25 06:31:04;;;;;;;9.15;3.97;;;;;;;;;;4956390;28;20114;-73
2022/10/25 06:33:30;;;;;;;7.22;3.70;;;;;;;;;;4956660;28;20129;-72
2022/10/25 06:35:57;;;;;;;8.68;2.80;;;;;;;;;;4956583;28;20046;-77
2022/10/25 06:38:22;;;;;;;6.70;2.80;;;;;;;;;;4956419;28;20101;-67
2022/10/25 06:40:48;;;;;;;6.75;2.30;;;;;;;;;;4956550;28;20481;-68
2022/10/25 06:43:13;;;;;;;6.40;2.45;;;;;;;;;;4956478;28;20035;-67
2022/10/25 06:45:40;;;;;;;5.75;2.28;;;;;;;;;;4956109;28;20035;-68
2022/10/25 06:48:06;;;;;;;8.32;3.00;;;;;;;;;;4956113;28;20041;-69
2022/10/25 06:50:31;;;;;;;14.25;2.63;;;;;;;;;;4961731;28;20023;-77
2022/10/25 06:52:56;;;;;;;6.80;2.70;;;;;;;;;;4977805;28;20072;-70
2022/10/25 06:55:22;;;;;;;6.63;1.90;;;;;;;;;;4971352;28;20034;-68
2022/10/25 06:57:47;;;;;;;9.20;2.35;;;;;;;;;;4969538;28;20038;-68
2022/10/25 07:00:13;;;;;;;12.43;2.70;;;;;;;;;;4970058;28;20042;-71
2022/10/25 07:02:39;;;;;;;8.68;2.67;;;;;;;;;;4973012;28;20029;-68
2022/10/25 07:05:04;;;;;;;9.85;2.45;;;;;;;;;;4970725;28;20038;-68
2022/10/25 07:07:30;;;;;;;7.30;2.47;;;;;;;;;;4970966;28;20034;-67
2022/10/25 07:09:55;;;;;;;9.63;2.78;;;;;;;;;;4970112;28;20085;-67
2022/10/25 07:12:21;;;;;;;7.43;2.15;;;;;;;;;;4971111;28;20114;-67
2022/10/25 07:14:46;;;;;;;7.10;2.20;;;;;;;;;;4970277;28;20026;-75
2022/10/25 07:17:12;;;;;;;6.53;2.20;;;;;;;;;;4972024;28;20429;-67
2022/10/25 07:19:37;;;;;;;8.00;2.20;;;;;;;;;;4970690;28;20027;-67
2022/10/25 07:22:02;;;;;;;6.63;2.00;;;;;;;;;;4973728;28;20023;-72
2022/10/25 07:24:28;;;;;;;5.88;1.88;;;;;;;;;;4970036;28;20134;-76
2022/10/25 07:26:53;;;;;;;5.85;2.17;;;;;;;;;;4971011;28;20043;-72
2022/10/25 07:29:19;;;;;;;5.68;2.03;;;;;;;;;;4970189;28;20034;-67
2022/10/25 07:31:44;;;;;;;6.15;2.10;;;;;;;;;;4970011;28;20038;-67
2022/10/25 07:34:13;;;;;;;7.53;2.00;;;;;;;;;;4969217;28;20031;-67
2022/10/25 07:36:39;;;;;;;9.20;2.35;;;;;;;;;;4968079;28;20030;-73
2022/10/25 07:39:04;;;;;;;7.07;2.38;;;;;;;;;;4972261;28;20109;-76
2022/10/25 07:41:30;;;;;;;7.10;2.22;;;;;;;;;;4973136;28;20531;-74
2022/10/25 07:43:55;;;;;;;7.43;2.30;;;;;;;;;;4988125;28;20026;-76
2022/10/25 07:46:21;;;;;;;6.07;2.05;;;;;;;;;;4977824;28;20096;-69
2022/10/25 07:48:47;;;;;;;20.13;2.40;;;;;;;;;;4984339;28;20027;-76
2022/10/25 07:51:14;;;;;;;8.60;2.00;;;;;;;;;;4964581;28;20114;-67
2022/10/25 07:53:40;;;;;;;5.90;1.80;;;;;;;;;;4970370;28;21469;-67
2022/10/25 07:56:08;;;;;;;5.25;1.80;;;;;;;;;;4968067;28;20111;-67
2022/10/25 07:58:34;;;;;;;8.60;2.17;;;;;;;;;;4969425;28;20022;-67
2022/10/25 08:01:04;;;;;;;5.30;2.10;;;;;;;;;;4969915;28;20480;-70
2022/10/25 08:03:30;;;;;;;8.02;2.33;;;;;;;;;;4968699;28;20419;-67
2022/10/25 08:05:56;;;;;;;6.53;2.58;;;;;;;;;;4967450;28;20189;-67
2022/10/25 08:08:23;;;;;;;8.95;2.42;;;;;;;;;;4968021;28;20733;-67
2022/10/25 08:10:48;;;;;;;7.13;2.45;;;;;;;;;;4968255;28;20030;-67
2022/10/25 08:13:14;;;;;;;7.68;2.47;;;;;;;;;;4969198;28;20037;-67
2022/10/25 08:15:40;;;;;;;6.28;2.53;;;;;;;;;;4967687;28;20078;-67
2022/10/25 08:18:06;;;;;;;5.75;2.08;;;;;;;;;;4967783;28;20566;-67
2022/10/25 08:20:32;;;;;;;6.38;2.42;;;;;;;;;;4969830;28;20404;-67
2022/10/25 08:22:58;;;;;;;5.65;2.40;;;;;;;;;;4969088;28;20038;-67
2022/10/25 08:25:26;;;;;;;6.03;1.98;;;;;;;;;;4969714;28;20034;-67
2022/10/25 08:27:51;;;;;;;5.80;2.00;;;;;;;;;;4969130;28;20042;-74
2022/10/25 08:30:17;;;;;;;7.45;2.25;;;;;;;;;;4968870;28;20395;-67
2022/10/25 08:32:42;;;;;;;5.15;1.92;;;;;;;;;;4969486;28;20030;-73
2022/10/25 08:35:08;;;;;;;4.05;1.70;;;;;;;;;;4969443;28;20061;-67
2022/10/25 08:37:33;;;;;;;5.82;2.45;;;;;;;;;;4969764;28;20064;-76
2022/10/25 08:39:59;;;;;;;7.05;1.80;;;;;;;;;;4968599;28;20034;-67
2022/10/25 08:42:35;;;;;;;4.38;2.08;;;;;;;;;;4969032;28;20027;-68
2022/10/25 08:45:14;;;;;;;9.30;2.30;;;;;;;;;;4969461;28;20134;-67
2022/10/25 08:47:45;;;;;;;9.73;2.42;;;;;;;;;;4969674;28;20035;-68
2022/10/25 08:50:43;;;;;;;5.70;2.30;;;;;;;;;;4968957;28;20079;-66
2022/10/25 08:53:19;;;;;;;3.70;2.00;;;;;;;;;;4966670;28;20039;-73
2022/10/25 08:55:45;;;;;;;9.80;2.20;;;;;;;;;;4968410;28;20384;-68
2022/10/25 08:58:34;;;;;;;8.82;3.53;;;;;;;;;;4969250;28;20500;-67
2022/10/25 09:01:04;;;;;;;6.22;2.13;;;;;;;;;;4969136;28;20039;-67
2022/10/25 09:03:29;;;;;;;6.18;2.00;;;;;;;;;;4970736;28;20030;-66
2022/10/25 09:06:01;;;;;;;6.72;2.42;;;;;;;;;;4969461;28;20046;-67
2022/10/25 09:08:59;;;;;;;9.05;2.55;;;;;;;;;;4971486;28;20569;-75
2022/10/25 09:11:55;;;;;;;6.53;2.33;;;;;;;;;;4969965;28;20027;-67
2022/10/25 09:14:48;;;;;;;9.43;2.30;;;;;;;;;;4973147;28;20039;-66
2022/10/25 09:17:22;;;;;;;8.20;2.63;;;;;;;;;;4972633;28;20019;-66
2022/10/25 09:20:01;;;;;;;7.32;2.40;;;;;;;;;;4974995;28;20038;-67
2022/10/25 09:22:29;;;;;;;6.45;2.08;;;;;;;;;;4971500;28;20365;-66
2022/10/25 09:25:16;;;;;;;4.97;2.25;;;;;;;;;;4971823;28;20033;-67
2022/10/25 09:27:56;;;;;;;7.57;2.10;;;;;;;;;;4970287;28;20126;-67
2022/10/25 09:30:21;;;;;;;5.65;2.15;;;;;;;;;;4969684;28;20026;-76
2022/10/25 09:32:59;;;;;;;10.10;2.25;;;;;;;;;;4970649;28;20029;-67
2022/10/25 09:35:34;;;;;;;7.55;2.25;;;;;;;;;;4969225;28;20031;-67
2022/10/25 09:38:04;;;;;;;8.05;2.28;;;;;;;;;;4970991;28;20487;-66
2022/10/25 09:40:33;;;;;;;;;;;;;;;;;;4969933;28;20031;-67
2022/10/25 09:43:05;;;;;;;5.75;2.67;;;;;;;;;;4970719;28;20387;-67
2022/10/25 09:45:41;;;;;;;8.23;2.42;;;;;;;;;;4969988;28;20027;-66
2022/10/25 09:48:15;;;;;;;9.57;3.10;;;;;;;;;;4968440;28;20381;-66
2022/10/25 09:51:11;;;;;;;4.63;1.98;;;;;;;;;;4971100;28;20368;-67
2022/10/25 09:53:39;;;;;;;6.45;2.30;;;;;;;;;;4968729;28;20038;-68
2022/10/25 09:56:05;;;;;;;7.30;2.30;;;;;;;;;;4971257;28;20030;-66
2022/10/25 09:58:45;;;;;;;7.88;2.78;;;;;;;;;;4972156;28;20074;-67
2022/10/25 10:01:25;;;;;;;8.43;2.15;;;;;;;;;;4972179;28;20026;-67
2022/10/25 10:03:51;;;;;;;5.10;1.80;;;;;;;;;;4972266;28;20392;-73
2022/10/25 10:06:32;;;;;;;6.07;2.35;;;;;;;;;;4971754;28;20031;-67
2022/10/25 10:09:16;;;;;;;5.80;2.10;;;;;;;;;;4973128;28;20023;-66
2022/10/25 10:11:46;;;;;;;7.57;1.80;;;;;;;;;;4972123;28;20447;-66
2022/10/25 10:14:30;;;;;;;4.63;1.85;;;;;;;;;;4972303;28;20018;-74
2022/10/25 10:16:56;;;;;;;9.93;2.03;;;;;;;;;;4972511;28;20110;-75
2022/10/25 10:19:23;;;;;;;6.72;1.63;;;;;;;;;;4972100;28;20047;-66
2022/10/25 10:22:11;;;;;;;3.78;1.60;;;;;;;;;;4971668;28;20023;-67
2022/10/25 10:24:40;;;;;;;3.88;1.65;;;;;;;;;;4969853;28;20047;-72
2022/10/25 10:27:22;;;;;;;7.68;1.85;;;;;;;;;;4970747;28;20074;-70
2022/10/25 10:29:58;;;;;;;5.35;1.58;;;;;;;;;;4971151;28;20037;-72
2022/10/25 10:32:35;;;;;;;4.15;1.77;;;;;;;;;;4970787;28;20030;-67
2022/10/25 10:35:03;;;;;;;5.93;1.80;;;;;;;;;;4971748;28;20054;-66
2022/10/25 10:37:30;;;;;;;9.30;2.30;;;;;;;;;;4969399;28;20126;-66
2022/10/25 10:40:00;;;;;;;4.45;1.88;;;;;;;;;;4976651;28;20097;-73
2022/10/25 10:42:29;;;;;;;6.60;2.10;;;;;;;;;;4970475;28;20023;-66
2022/10/25 10:45:06;;;;;;;4.40;2.05;;;;;;;;;;4971092;28;20039;-70
2022/10/25 10:47:55;;;;;;;6.28;2.17;;;;;;;;;;4969158;28;20383;-67
2022/10/25 10:50:27;;;;;;;5.70;2.00;;;;;;;;;;4964470;28;20118;-66
2022/10/25 10:53:19;;;;;;;7.93;2.10;;;;;;;;;;4971510;28;20062;-66
2022/10/25 10:55:45;;;;;;;7.20;2.40;;;;;;;;;;4971326;28;20027;-66
2022/10/25 10:58:15;;;;;;;7.78;2.08;;;;;;;;;;4971150;28;20029;-66
2022/10/25 11:00:58;;;;;;;7.68;2.47;;;;;;;;;;4971696;28;20042;-66
2022/10/25 11:03:41;;;;;;;8.88;2.58;;;;;;;;;;4971199;28;20035;-67
2022/10/25 11:06:16;;;;;;;8.70;2.35;;;;;;;;;;4969817;28;20027;-76
2022/10/25 11:08:45;;;;;;;11.05;3.15;;;;;;;;;;4971874;28;20034;-74
2022/10/25 11:11:23;;;;;;;7.97;3.35;;;;;;;;;;4971003;28;20035;-76
2022/10/25 11:13:54;;;;;;;6.95;2.20;;;;;;;;;;4971180;28;20050;-72
2022/10/25 11:17:08;;;;;;;11.07;3.53;;;;;;;;;;4970649;28;20399;-66
2022/10/25 11:20:18;;;;;;;8.48;2.28;;;;;;;;;;4930200;29;20055;-66
2022/10/25 11:22:55;;;;;;;7.10;2.00;;;;;;;;;;4930169;29;20100;-68
2022/10/25 11:25:33;;;;;;;6.72;2.05;;;;;;;;;;4929284;29;20048;-66
2022/10/25 11:28:46;;;;;;;6.50;2.15;;;;;;;;;;4930540;29;20052;-66
2022/10/25 11:31:38;;;;;;;7.15;2.13;;;;;;;;;;4913343;29;20036;-74
2022/10/25 11:34:31;;;;;;;4.95;1.98;;;;;;;;;;4928659;29;20043;-66
2022/10/25 11:37:13;;;;;;;8.52;2.50;;;;;;;;;;4929927;29;20477;-66
2022/10/25 11:39:52;;;;;;;8.02;2.42;;;;;;;;;;4930001;29;20035;-66
2022/10/25 11:42:39;;;;;;;7.85;2.55;;;;;;;;;;4929674;29;20028;-76
2022/10/25 11:45:28;;;;;;;11.10;2.17;;;;;;;;;;4929116;29;20036;-66
2022/10/25 11:48:17;;;;;;;5.45;1.90;;;;;;;;;;4930028;29;20477;-66
2022/10/25 11:51:04;;;;;;;9.68;2.50;;;;;;;;;;4958691;28;20484;-67
2022/10/25 11:53:57;;;;;;;10.38;2.40;;;;;;;;;;4969122;28;20035;-70
2022/10/25 11:56:46;;;;;;;7.63;2.33;;;;;;;;;;4970210;28;20035;-67
2022/10/25 11:59:29;;;;;;;7.78;1.90;;;;;;;;;;4970684;28;20031;-66
2022/10/25 12:02:01;;;;;;;9.43;2.63;;;;;;;;;;4970220;28;20026;-66
2022/10/25 12:04:37;;;;;;;9.52;2.20;;;;;;;;;;4970308;28;20023;-66
2022/10/25 12:07:15;;;;;;;11.23;2.45;;;;;;;;;;4969553;28;20043;-66
2022/10/25 12:10:08;;;;;;;16.33;2.90;;;;;;;;;;4968190;28;20497;-66
2022/10/25 12:12:47;;;;;;;6.07;2.05;;;;;;;;;;4970328;28;20380;-66
2022/10/25 12:15:20;;;;;;;8.15;2.72;;;;;;;;;;4969982;28;20034;-67
2022/10/25 12:17:46;;;;;;;7.30;2.20;;;;;;;;;;4969894;28;20030;-75
2022/10/25 12:20:21;;;;;;;6.03;2.30;;;;;;;;;;4970101;28;20038;-66
2022/10/25 12:22:50;;;;;;;11.57;2.40;;;;;;;;;;4970012;28;20050;-66
2022/10/25 12:25:31;;;;;;;12.30;2.40;;;;;;;;;;4969523;28;20110;-68
2022/10/25 12:28:05;;;;;;;;;;;;;;;;;;4970801;28;20039;-74
2022/10/25 12:30:32;;;;;;;8.18;2.28;;;;;;;;;;4970251;28;19918;-66
2022/10/25 12:33:22;;;;;;;7.72;1.88;;;;;;;;;;4969911;28;20105;-76
2022/10/25 12:35:52;;;;;;;9.00;2.42;;;;;;;;;;4970353;28;20019;-67
2022/10/25 12:38:35;;;;;;;;;;;;;;;;;;4970094;28;20129;-66
2022/10/25 12:41:23;;;;;;;9.60;2.35;;;;;;;;;;4969645;28;19914;-70
2022/10/25 12:43:51;;;;;;;6.13;2.53;;;;;;;;;;4969223;28;20033;-76
2022/10/25 12:46:28;;;;;;;7.85;2.60;;;;;;;;;;4968724;28;20069;-66
2022/10/25 12:48:53;;;;;;;9.50;2.70;;;;;;;;;;4969504;28;20062;-76
2022/10/25 12:51:33;;;;;;;9.52;2.33;;;;;;;;;;4969531;28;20062;-67
2022/10/25 12:54:10;;;;;;;12.45;2.67;;;;;;;;;;4969906;28;20560;-66
2022/10/25 12:56:50;;;;;;;8.80;3.05;;;;;;;;;;4970190;28;20440;-69
2022/10/25 12:59:37;;;;;;;6.13;2.17;;;;;;;;;;4969941;28;20392;-67
2022/10/25 13:02:14;;;;;;;6.63;2.13;;;;;;;;;;4969502;28;20074;-67
2022/10/25 13:04:50;;;;;;;9.95;2.53;;;;;;;;;;4968905;28;20035;-66
2022/10/25 13:07:16;;;;;;;8.48;2.15;;;;;;;;;;4969310;28;20027;-68
2022/10/25 13:09:42;;;;;;;10.10;2.25;;;;;;;;;;4969817;28;20030;-66
2022/10/25 13:12:19;;;;;;;7.05;2.40;;;;;;;;;;4969748;28;20019;-74
2022/10/25 13:14:51;;;;;;;8.60;2.38;;;;;;;;;;4969048;28;20031;-73
2022/10/25 13:17:17;;;;;;;6.57;2.15;;;;;;;;;;4969749;28;20034;-70
2022/10/25 13:19:52;;;;;;;8.05;2.40;;;;;;;;;;4969131;28;20026;-67
2022/10/25 13:22:27;;;;;;;10.13;3.00;;;;;;;;;;4970272;28;20120;-67
2022/10/25 13:24:54;;;;;;;8.52;2.53;;;;;;;;;;4969076;28;20039;-66
2022/10/25 13:28:04;;;;;;;8.48;2.78;;;;;;;;;;4969242;28;20043;-67
2022/10/25 13:30:30;;;;;;;6.28;2.42;;;;;;;;;;4947800;29;20039;-67
2022/10/25 13:33:17;;;;;;;9.52;2.80;;;;;;;;;;4930604;29;20035;-67
2022/10/25 13:35:43;;;;;;;7.10;2.42;;;;;;;;;;4925870;29;20087;-70
2022/10/25 13:38:18;;;;;;;11.30;2.33;;;;;;;;;;4930334;29;20043;-68
2022/10/25 13:41:21;;;;;;;9.52;2.60;;;;;;;;;;4928880;29;21491;-67
2022/10/25 13:43:58;;;;;;;8.25;3.00;;;;;;;;;;4948318;29;20135;-67
2022/10/25 13:46:40;;;;;;;8.18;2.75;;;;;;;;;;4951612;29;20039;-68
2022/10/25 13:49:33;;;;;;;10.63;2.72;;;;;;;;;;4951863;29;20040;-72
2022/10/25 13:52:04;;;;;;;7.53;3.60;;;;;;;;;;4951309;29;20595;-66
2022/10/25 13:54:52;;;;;;;6.38;2.65;;;;;;;;;;4951368;29;20035;-67
2022/10/25 13:57:53;;;;;;;7.93;3.15;;;;;;;;;;4952243;28;20028;-67
2022/10/25 14:00:40;;;;;;;8.80;3.15;;;;;;;;;;4954717;29;20035;-67
2022/10/25 14:03:08;;;;;;;6.88;2.70;;;;;;;;;;4955176;29;20034;-74
2022/10/25 14:05:52;;;;;;;8.77;3.00;;;;;;;;;;4954560;29;20497;-67
2022/10/25 14:08:59;;;;;;;8.98;3.35;;;;;;;;;;4976533;28;20031;-66
2022/10/25 14:11:38;;;;;;;9.05;3.85;;;;;;;;;;4954829;29;20381;-67
2022/10/25 14:14:14;;;;;;;7.73;3.70;;;;;;;;;;4954639;29;20055;-66
2022/10/25 14:16:44;;;;;;;5.53;2.85;;;;;;;;;;4954755;29;20117;-67
2022/10/25 14:19:16;;;;;;;8.93;3.27;;;;;;;;;;4954586;29;20031;-68
2022/10/25 14:21:46;;;;;;;4.78;2.50;;;;;;;;;;4954525;29;20042;-67
2022/10/25 14:24:15;;;;;;;7.55;2.92;;;;;;;;;;4949872;28;20060;-67
2022/10/25 14:26:54;;;;;;;7.43;2.58;;;;;;;;;;4947346;28;20379;-67
2022/10/25 14:29:22;;;;;;;4.50;2.30;;;;;;;;;;4949722;28;20558;-68
2022/10/25 14:31:48;;;;;;;6.82;2.28;;;;;;;;;;4951769;28;20567;-68
2022/10/25 14:34:26;;;;;;;8.93;2.80;;;;;;;;;;4950143;28;20134;-71
2022/10/25 14:36:55;;;;;;;7.90;3.33;;;;;;;;;;4951753;28;20393;-67
2022/10/25 14:39:29;;;;;;;7.65;3.00;;;;;;;;;;4946657;28;20366;-73
2022/10/25 14:42:00;;;;;;;6.60;2.95;;;;;;;;;;4958864;28;20050;-67
2022/10/25 14:44:29;;;;;;;6.97;2.92;;;;;;;;;;4974570;28;20022;-67
2022/10/25 14:46:56;;;;;;;8.40;4.18;;;;;;;;;;4972213;28;20035;-67
2022/10/25 14:49:23;;;;;;;10.80;3.25;;;;;;;;;;4976562;28;20025;-67
2022/10/25 14:51:51;;;;;;;7.07;3.00;;;;;;;;;;4978339;28;20058;-75
2022/10/25 14:54:27;;;;;;;9.07;3.15;;;;;;;;;;4976538;28;20066;-69
2022/10/25 14:56:58;;;;;;;9.23;3.65;;;;;;;;;;4968118;28;20035;-67
2022/10/25 14:59:37;;;;;;;7.63;3.42;;;;;;;;;;4973867;28;20403;-67
2022/10/25 15:02:16;;;;;;;6.70;2.42;;;;;;;;;;4994538;28;20033;-67
2022/10/25 15:04:45;;;;;;;8.63;3.50;;;;;;;;;;4994606;28;20030;-68
2022/10/25 15:07:25;;;;;;;10.13;3.97;;;;;;;;;;4994624;28;20041;-67
2022/10/25 15:09:54;;;;;;;5.10;2.85;;;;;;;;;;4994387;28;20026;-75
2022/10/25 15:12:24;;;;;;;5.40;2.45;;;;;;;;;;4994331;28;20049;-69
2022/10/25 15:14:51;;;;;;;4.78;2.65;;;;;;;;;;4994423;28;20125;-72